sensor_id;sensor_type;location;lat;lon;timestamp;pressure;altitude;pressure_sealevel;temperature;humidity
8637;BME280;4356;49.068;8.658;2023-03-04T00:01:42;100541.31;;;17.39;30.08
8637;BME280;4356;49.068;8.658;2023-03-04T00:04:07;100540.22;;;17.33;30.35
8637;BME280;4356;49.068;8.658;2023-03-04T00:06:33;100548.19;;;17.35;30.32
8637;BME280;4356;49.068;8.658;2023-03-04T00:08:58;100552.97;;;17.33;30.19
8637;BME280;4356;49.068;8.658;2023-03-04T00:11:24;100558.19;;;17.34;29.90
8637;BME280;4356;49.068;8.658;2023-03-04T00:13:50;100543.50;;;17.22;30.30
8637;BME280;4356;49.068;8.658;2023-03-04T00:16:16;100560.25;;;17.32;30.18
8637;BME280;4356;49.068;8.658;2023-03-04T00:18:41;100553.53;;;17.28;30.45
8637;BME280;4356;49.068;8.658;2023-03-04T00:21:07;100553.94;;;17.25;30.58
8637;BME280;4356;49.068;8.658;2023-03-04T00:23:32;100555.66;;;17.26;30.48
8637;BME280;4356;49.068;8.658;2023-03-04T00:26:00;100553.94;;;17.25;30.09
8637;BME280;4356;49.068;8.658;2023-03-04T00:28:26;100558.53;;;17.25;30.22
8637;BME280;4356;49.068;8.658;2023-03-04T00:30:52;100541.31;;;17.11;30.40
8637;BME280;4356;49.068;8.658;2023-03-04T00:33:17;100548.47;;;17.19;30.44
8637;BME280;4356;49.068;8.658;2023-03-04T00:35:43;100553.06;;;17.18;30.36
8637;BME280;4356;49.068;8.658;2023-03-04T00:38:08;100553.91;;;17.19;30.63
8637;BME280;4356;49.068;8.658;2023-03-04T00:40:34;100559.34;;;17.19;30.47
8637;BME280;4356;49.068;8.658;2023-03-04T00:42:59;100550.50;;;17.10;30.38
8637;BME280;4356;49.068;8.658;2023-03-04T00:45:25;100543.97;;;17.05;30.47
8637;BME280;4356;49.068;8.658;2023-03-04T00:47:50;100554.06;;;17.11;30.24
8637;BME280;4356;49.068;8.658;2023-03-04T00:50:16;100550.03;;;17.07;30.55
8637;BME280;4356;49.068;8.658;2023-03-04T00:52:42;100561.34;;;17.10;30.44
8637;BME280;4356;49.068;8.658;2023-03-04T00:55:08;100560.53;;;17.10;30.42
8637;BME280;4356;49.068;8.658;2023-03-04T00:57:34;100555.47;;;17.07;30.01
8637;BME280;4356;49.068;8.658;2023-03-04T00:59:59;100561.97;;;17.06;30.27
8637;BME280;4356;49.068;8.658;2023-03-04T01:02:25;100559.25;;;17.06;30.16
8637;BME280;4356;49.068;8.658;2023-03-04T01:04:50;100545.16;;;16.96;30.22
8637;BME280;4356;49.068;8.658;2023-03-04T01:07:16;100557.09;;;17.01;30.48
8637;BME280;4356;49.068;8.658;2023-03-04T01:09:42;100547.03;;;16.95;30.42
8637;BME280;4356;49.068;8.658;2023-03-04T01:12:07;100554.59;;;17.00;30.60
8637;BME280;4356;49.068;8.658;2023-03-04T01:14:33;100553.94;;;16.98;30.26
8637;BME280;4356;49.068;8.658;2023-03-04T01:16:58;100551.63;;;16.95;30.34
8637;BME280;4356;49.068;8.658;2023-03-04T01:19:24;100554.53;;;16.93;30.24
8637;BME280;4356;49.068;8.658;2023-03-04T01:21:50;100552.69;;;16.94;30.71
8637;BME280;4356;49.068;8.658;2023-03-04T01:24:15;100555.38;;;16.94;30.23
8637;BME280;4356;49.068;8.658;2023-03-04T01:26:41;100552.84;;;16.92;30.48
8637;BME280;4356;49.068;8.658;2023-03-04T01:29:06;100541.09;;;16.85;30.36
8637;BME280;4356;49.068;8.658;2023-03-04T01:31:32;100551.59;;;16.88;30.45
8637;BME280;4356;49.068;8.658;2023-03-04T01:33:57;100546.16;;;16.88;30.45
8637;BME280;4356;49.068;8.658;2023-03-04T01:36:23;100552.41;;;16.89;30.54
8637;BME280;4356;49.068;8.658;2023-03-04T01:38:48;100554.47;;;16.87;30.46
8637;BME280;4356;49.068;8.658;2023-03-04T01:41:16;100544.22;;;16.82;30.42
8637;BME280;4356;49.068;8.658;2023-03-04T01:43:43;100551.94;;;16.85;30.36
8637;BME280;4356;49.068;8.658;2023-03-04T01:46:11;100534.56;;;16.80;30.60
8637;BME280;4356;49.068;8.658;2023-03-04T01:48:40;100540.84;;;16.80;30.43
8637;BME280;4356;49.068;8.658;2023-03-04T01:51:12;100547.13;;;16.81;30.39
8637;BME280;4356;49.068;8.658;2023-03-04T01:53:38;100531.81;;;16.73;30.62
8637;BME280;4356;49.068;8.658;2023-03-04T01:56:15;100540.41;;;16.77;30.32
8637;BME280;4356;49.068;8.658;2023-03-04T01:58:41;100531.81;;;16.73;30.82
8637;BME280;4356;49.068;8.658;2023-03-04T02:01:10;100514.19;;;16.63;30.23
8637;BME280;4356;49.068;8.658;2023-03-04T02:03:36;100537.69;;;16.77;30.61
8637;BME280;4356;49.068;8.658;2023-03-04T02:06:01;100515.84;;;16.64;30.35
8637;BME280;4356;49.068;8.658;2023-03-04T02:08:27;100511.47;;;16.63;30.30
8637;BME280;4356;49.068;8.658;2023-03-04T02:10:53;100527.59;;;16.71;30.22
8637;BME280;4356;49.068;8.658;2023-03-04T02:13:18;100528.66;;;16.70;30.39
8637;BME280;4356;49.068;8.658;2023-03-04T02:15:44;100519.84;;;16.68;30.40
8637;BME280;4356;49.068;8.658;2023-03-04T02:18:17;100519.66;;;16.69;30.42
8637;BME280;4356;49.068;8.658;2023-03-04T02:21:10;100521.72;;;16.67;30.36
8637;BME280;4356;49.068;8.658;2023-03-04T02:26:29;100513.75;;;16.59;30.67
8637;BME280;4356;49.068;8.658;2023-03-04T02:28:57;100520.81;;;16.60;30.68
8637;BME280;4356;49.068;8.658;2023-03-04T02:33:59;100527.09;;;16.61;30.59
8637;BME280;4356;49.068;8.658;2023-03-04T02:36:25;100525.41;;;16.60;30.70
8637;BME280;4356;49.068;8.658;2023-03-04T02:38:52;100525.59;;;16.58;30.64
8637;BME280;4356;49.068;8.658;2023-03-04T02:41:22;100528.31;;;16.58;30.58
8637;BME280;4356;49.068;8.658;2023-03-04T02:43:51;100514.91;;;16.50;30.46
8637;BME280;4356;49.068;8.658;2023-03-04T02:46:17;100518.25;;;16.52;30.26
8637;BME280;4356;49.068;8.658;2023-03-04T02:48:43;100523.84;;;16.51;30.60
8637;BME280;4356;49.068;8.658;2023-03-04T02:51:12;100530.78;;;16.53;30.54
8637;BME280;4356;49.068;8.658;2023-03-04T02:53:37;100514.13;;;16.41;30.47
8637;BME280;4356;49.068;8.658;2023-03-04T02:56:03;100523.41;;;16.47;30.64
8637;BME280;4356;49.068;8.658;2023-03-04T02:58:29;100526.78;;;16.49;30.71
8637;BME280;4356;49.068;8.658;2023-03-04T03:00:54;100519.19;;;16.44;30.74
8637;BME280;4356;49.068;8.658;2023-03-04T03:03:20;100529.69;;;16.48;30.66
8637;BME280;4356;49.068;8.658;2023-03-04T03:05:46;100527.13;;;16.46;30.46
8637;BME280;4356;49.068;8.658;2023-03-04T03:08:12;100534.25;;;16.47;30.30
8637;BME280;4356;49.068;8.658;2023-03-04T03:10:37;100524.63;;;16.44;30.49
8637;BME280;4356;49.068;8.658;2023-03-04T03:13:03;100519.56;;;16.41;30.26
8637;BME280;4356;49.068;8.658;2023-03-04T03:15:29;100523.13;;;16.42;30.49
8637;BME280;4356;49.068;8.658;2023-03-04T03:17:54;100522.47;;;16.40;30.63
8637;BME280;4356;49.068;8.658;2023-03-04T03:20:20;100515.94;;;16.34;30.48
8637;BME280;4356;49.068;8.658;2023-03-04T03:22:46;100525.00;;;16.41;30.34
8637;BME280;4356;49.068;8.658;2023-03-04T03:25:13;100521.00;;;16.37;30.54
8637;BME280;4356;49.068;8.658;2023-03-04T03:27:39;100524.72;;;16.36;30.54
8637;BME280;4356;49.068;8.658;2023-03-04T03:30:06;100526.78;;;16.34;30.40
8637;BME280;4356;49.068;8.658;2023-03-04T03:32:32;100524.94;;;16.35;30.62
8637;BME280;4356;49.068;8.658;2023-03-04T03:34:57;100516.16;;;16.33;30.39
8637;BME280;4356;49.068;8.658;2023-03-04T03:37:23;100518.22;;;16.31;30.93
8637;BME280;4356;49.068;8.658;2023-03-04T03:39:49;100522.63;;;16.32;30.39
8637;BME280;4356;49.068;8.658;2023-03-04T03:42:14;100522.63;;;16.32;30.81
8637;BME280;4356;49.068;8.658;2023-03-04T03:44:40;100516.53;;;16.30;30.62
8637;BME280;4356;49.068;8.658;2023-03-04T03:47:05;100526.34;;;16.31;30.70
8637;BME280;4356;49.068;8.658;2023-03-04T03:49:31;100516.91;;;16.27;31.00
8637;BME280;4356;49.068;8.658;2023-03-04T03:51:56;100522.31;;;16.27;30.97
8637;BME280;4356;49.068;8.658;2023-03-04T03:54:22;100514.59;;;16.24;30.61
8637;BME280;4356;49.068;8.658;2023-03-04T03:56:47;100512.06;;;16.22;30.62
8637;BME280;4356;49.068;8.658;2023-03-04T03:59:13;100519.16;;;16.23;30.70
8637;BME280;4356;49.068;8.658;2023-03-04T04:01:38;100518.34;;;16.23;30.60
8637;BME280;4356;49.068;8.658;2023-03-04T04:04:04;100513.94;;;16.22;30.37
8637;BME280;4356;49.068;8.658;2023-03-04T04:06:30;100517.25;;;16.17;30.50
8637;BME280;4356;49.068;8.658;2023-03-04T04:08:55;100533.78;;;16.22;30.49
8637;BME280;4356;49.068;8.658;2023-03-04T04:11:21;100526.03;;;16.19;30.39
8637;BME280;4356;49.068;8.658;2023-03-04T04:13:46;100529.94;;;16.17;30.66
8637;BME280;4356;49.068;8.658;2023-03-04T04:16:12;100528.28;;;16.16;30.38
8637;BME280;4356;49.068;8.658;2023-03-04T04:18:37;100536.69;;;16.21;30.37
8637;BME280;4356;49.068;8.658;2023-03-04T04:21:03;100521.56;;;16.12;30.29
8637;BME280;4356;49.068;8.658;2023-03-04T04:23:29;100533.31;;;16.19;30.43
8637;BME280;4356;49.068;8.658;2023-03-04T04:25:55;100531.16;;;16.14;30.45
8637;BME280;4356;49.068;8.658;2023-03-04T04:28:21;100524.91;;;16.14;30.46
8637;BME280;4356;49.068;8.658;2023-03-04T04:30:47;100525.13;;;16.12;30.52
8637;BME280;4356;49.068;8.658;2023-03-04T04:33:12;100521.31;;;16.07;30.28
8637;BME280;4356;49.068;8.658;2023-03-04T04:35:38;100525.03;;;16.06;30.23
8637;BME280;4356;49.068;8.658;2023-03-04T04:38:04;100534.06;;;16.13;30.21
8637;BME280;4356;49.068;8.658;2023-03-04T04:40:30;100522.31;;;16.06;30.45
8637;BME280;4356;49.068;8.658;2023-03-04T04:42:56;100534.66;;;16.08;30.42
8637;BME280;4356;49.068;8.658;2023-03-04T04:45:22;100541.56;;;16.11;30.30
8637;BME280;4356;49.068;8.658;2023-03-04T04:47:52;100536.53;;;16.08;30.31
8637;BME280;4356;49.068;8.658;2023-03-04T04:50:18;100540.09;;;16.08;30.31
8637;BME280;4356;49.068;8.658;2023-03-04T04:52:44;100537.72;;;16.05;30.20
8637;BME280;4356;49.068;8.658;2023-03-04T04:55:10;100536.91;;;16.05;30.37
8637;BME280;4356;49.068;8.658;2023-03-04T04:57:38;100519.44;;;15.93;30.31
8637;BME280;4356;49.068;8.658;2023-03-04T05:00:04;100535.81;;;15.99;30.16
8637;BME280;4356;49.068;8.658;2023-03-04T05:02:31;100530.56;;;15.98;30.05
8637;BME280;4356;49.068;8.658;2023-03-04T05:05:01;100540.44;;;16.05;30.13
8637;BME280;4356;49.068;8.658;2023-03-04T05:07:27;100543.53;;;16.02;30.28
8637;BME280;4356;49.068;8.658;2023-03-04T05:09:52;100559.63;;;16.04;30.31
8637;BME280;4356;49.068;8.658;2023-03-04T05:12:18;100543.09;;;15.99;30.05
8637;BME280;4356;49.068;8.658;2023-03-04T05:14:43;100538.41;;;15.93;30.28
8637;BME280;4356;49.068;8.658;2023-03-04T05:17:09;100546.66;;;15.99;30.20
8637;BME280;4356;49.068;8.658;2023-03-04T05:19:34;100550.38;;;15.98;30.14
8637;BME280;4356;49.068;8.658;2023-03-04T05:22:00;100542.44;;;15.97;29.84
8637;BME280;4356;49.068;8.658;2023-03-04T05:24:25;100550.38;;;15.98;30.08
8637;BME280;4356;49.068;8.658;2023-03-04T05:26:51;100535.50;;;15.94;30.04
8637;BME280;4356;49.068;8.658;2023-03-04T05:29:16;100539.06;;;15.95;30.07
8637;BME280;4356;49.068;8.658;2023-03-04T05:31:43;100538.59;;;15.91;30.21
8637;BME280;4356;49.068;8.658;2023-03-04T05:34:08;100538.41;;;15.93;30.10
8637;BME280;4356;49.068;8.658;2023-03-04T05:36:34;100547.19;;;15.95;30.13
8637;BME280;4356;49.068;8.658;2023-03-04T05:38:59;100549.25;;;15.93;30.11
8637;BME280;4356;49.068;8.658;2023-03-04T05:41:25;100548.44;;;15.92;30.19
8637;BME280;4356;49.068;8.658;2023-03-04T05:43:50;100542.16;;;15.92;30.16
8637;BME280;4356;49.068;8.658;2023-03-04T05:46:17;100548.25;;;15.94;30.04
8637;BME280;4356;49.068;8.658;2023-03-04T05:48:50;100550.50;;;15.90;29.92
8637;BME280;4356;49.068;8.658;2023-03-04T05:51:16;100553.41;;;15.89;30.23
8637;BME280;4356;49.068;8.658;2023-03-04T05:53:41;100553.00;;;15.92;30.27
8637;BME280;4356;49.068;8.658;2023-03-04T05:56:12;100552.56;;;15.88;30.38
8637;BME280;4356;49.068;8.658;2023-03-04T05:58:38;100556.94;;;15.89;30.32
8637;BME280;4356;49.068;8.658;2023-03-04T06:01:04;100531.16;;;15.79;30.48
8637;BME280;4356;49.068;8.658;2023-03-04T06:03:29;100564.88;;;15.91;30.31
8637;BME280;4356;49.068;8.658;2023-03-04T06:05:55;100532.56;;;15.75;30.45
8637;BME280;4356;49.068;8.658;2023-03-04T06:08:21;100555.00;;;15.83;30.53
8637;BME280;4356;49.068;8.658;2023-03-04T06:10:46;100564.41;;;15.87;30.40
8637;BME280;4356;49.068;8.658;2023-03-04T06:13:12;100552.19;;;15.77;30.23
8637;BME280;4356;49.068;8.658;2023-03-04T06:15:38;100555.75;;;15.77;30.26
8637;BME280;4356;49.068;8.658;2023-03-04T06:18:06;100576.94;;;15.88;30.23
8637;BME280;4356;49.068;8.658;2023-03-04T06:20:32;100567.44;;;15.78;30.30
8637;BME280;4356;49.068;8.658;2023-03-04T06:22:57;100577.22;;;15.79;30.51
8637;BME280;4356;49.068;8.658;2023-03-04T06:25:23;100586.28;;;15.86;30.74
8637;BME280;4356;49.068;8.658;2023-03-04T06:27:49;100592.56;;;15.86;30.61
8637;BME280;4356;49.068;8.658;2023-03-04T06:30:14;100575.25;;;15.73;30.61
8637;BME280;4356;49.068;8.658;2023-03-04T06:32:42;100597.78;;;15.88;30.63
8637;BME280;4356;49.068;8.658;2023-03-04T06:35:13;100599.63;;;15.87;30.71
8637;BME280;4356;49.068;8.658;2023-03-04T06:37:39;100588.53;;;15.82;31.01
8637;BME280;4356;49.068;8.658;2023-03-04T06:40:06;100596.94;;;15.87;30.82
8637;BME280;4356;49.068;8.658;2023-03-04T06:42:33;100593.41;;;15.87;30.65
8637;BME280;4356;49.068;8.658;2023-03-04T06:44:59;100589.19;;;15.84;31.05
8637;BME280;4356;49.068;8.658;2023-03-04T06:47:24;100590.03;;;15.85;30.87
8637;BME280;4356;49.068;8.658;2023-03-04T06:49:50;100595.66;;;15.83;30.86
8637;BME280;4356;49.068;8.658;2023-03-04T06:52:16;100597.13;;;15.86;30.93
8637;BME280;4356;49.068;8.658;2023-03-04T06:54:42;100596.94;;;15.87;31.12
8637;BME280;4356;49.068;8.658;2023-03-04T06:57:07;100582.84;;;15.77;30.92
8637;BME280;4356;49.068;8.658;2023-03-04T06:59:33;100581.63;;;15.80;31.00
8637;BME280;4356;49.068;8.658;2023-03-04T07:01:59;100602.00;;;15.90;30.96
8637;BME280;4356;49.068;8.658;2023-03-04T07:04:25;100600.09;;;15.91;31.29
8637;BME280;4356;49.068;8.658;2023-03-04T07:06:50;100587.88;;;15.80;31.48
8637;BME280;4356;49.068;8.658;2023-03-04T07:09:16;100599.63;;;15.87;31.46
8637;BME280;4356;49.068;8.658;2023-03-04T07:11:42;100608.06;;;15.92;31.64
8637;BME280;4356;49.068;8.658;2023-03-04T07:14:08;100613.84;;;15.89;31.63
8637;BME280;4356;49.068;8.658;2023-03-04T07:16:34;100612.00;;;15.90;31.21
8637;BME280;4356;49.068;8.658;2023-03-04T07:18:59;100617.03;;;15.93;31.35
8637;BME280;4356;49.068;8.658;2023-03-04T07:21:25;100616.84;;;15.94;31.47
8637;BME280;4356;49.068;8.658;2023-03-04T07:23:50;100612.44;;;15.93;31.42
8637;BME280;4356;49.068;8.658;2023-03-04T07:26:16;100601.53;;;15.87;31.37
8637;BME280;4356;49.068;8.658;2023-03-04T07:28:42;100600.94;;;15.91;31.83
8637;BME280;4356;49.068;8.658;2023-03-04T07:33:40;100624.41;;;15.99;31.44
8637;BME280;4356;49.068;8.658;2023-03-04T07:36:06;100622.16;;;16.02;31.46
8637;BME280;4356;49.068;8.658;2023-03-04T07:38:33;100626.19;;;16.06;31.90
8637;BME280;4356;49.068;8.658;2023-03-04T07:40:59;100619.72;;;16.07;31.84
8637;BME280;4356;49.068;8.658;2023-03-04T07:43:25;100634.59;;;16.11;31.82
8637;BME280;4356;49.068;8.658;2023-03-04T07:45:50;100614.22;;;16.01;31.70
8637;BME280;4356;49.068;8.658;2023-03-04T07:48:16;100644.22;;;16.14;32.00
8637;BME280;4356;49.068;8.658;2023-03-04T07:50:41;100638.41;;;16.17;31.86
8637;BME280;4356;49.068;8.658;2023-03-04T07:53:07;100637.22;;;16.19;31.86
8637;BME280;4356;49.068;8.658;2023-03-04T07:55:32;100621.44;;;16.08;31.76
8637;BME280;4356;49.068;8.658;2023-03-04T07:57:58;100630.22;;;16.10;31.75
8637;BME280;4356;49.068;8.658;2023-03-04T08:00:24;100628.78;;;16.14;31.95
8637;BME280;4356;49.068;8.658;2023-03-04T08:02:49;100628.97;;;16.13;31.88
8637;BME280;4356;49.068;8.658;2023-03-04T08:05:15;100645.22;;;16.27;32.06
8637;BME280;4356;49.068;8.658;2023-03-04T08:07:40;100638.88;;;16.20;31.78
8637;BME280;4356;49.068;8.658;2023-03-04T08:10:06;100647.38;;;16.32;32.01
8637;BME280;4356;49.068;8.658;2023-03-04T08:12:35;100632.91;;;16.25;32.09
8637;BME280;4356;49.068;8.658;2023-03-04T08:15:01;100649.25;;;16.31;31.93
8637;BME280;4356;49.068;8.658;2023-03-04T08:17:26;100653.94;;;16.37;32.19
8637;BME280;4356;49.068;8.658;2023-03-04T08:19:54;100645.34;;;16.34;32.11
8637;BME280;4356;49.068;8.658;2023-03-04T08:22:20;100647.91;;;16.42;32.06
8637;BME280;4356;49.068;8.658;2023-03-04T08:24:45;100640.53;;;16.36;32.33
8637;BME280;4356;49.068;8.658;2023-03-04T08:27:11;100654.66;;;16.46;32.07
8637;BME280;4356;49.068;8.658;2023-03-04T08:29:36;100635.94;;;16.36;32.25
8637;BME280;4356;49.068;8.658;2023-03-04T08:32:02;100647.34;;;16.46;32.38
8637;BME280;4356;49.068;8.658;2023-03-04T08:34:28;100649.72;;;16.50;32.08
8637;BME280;4356;49.068;8.658;2023-03-04T08:36:54;100643.34;;;16.42;32.11
8637;BME280;4356;49.068;8.658;2023-03-04T08:39:20;100653.72;;;16.54;32.14
8637;BME280;4356;49.068;8.658;2023-03-04T08:41:46;100651.84;;;16.54;32.21
8637;BME280;4356;49.068;8.658;2023-03-04T08:44:12;100641.19;;;16.53;32.18
8637;BME280;4356;49.068;8.658;2023-03-04T08:46:39;100642.69;;;16.55;32.27
8637;BME280;4356;49.068;8.658;2023-03-04T08:49:05;100637.25;;;16.55;32.58
8637;BME280;4356;49.068;8.658;2023-03-04T08:51:31;100649.22;;;16.61;32.64
8637;BME280;4356;49.068;8.658;2023-03-04T08:53:57;100650.63;;;16.57;32.38
8637;BME280;4356;49.068;8.658;2023-03-04T08:56:25;100644.81;;;16.60;32.61
8637;BME280;4356;49.068;8.658;2023-03-04T08:58:50;100651.53;;;16.64;32.44
8637;BME280;4356;49.068;8.658;2023-03-04T09:01:16;100635.56;;;16.54;32.40
8637;BME280;4356;49.068;8.658;2023-03-04T09:03:42;100647.63;;;16.66;32.76
8637;BME280;4356;49.068;8.658;2023-03-04T09:06:08;100647.41;;;16.68;32.78
8637;BME280;4356;49.068;8.658;2023-03-04T09:08:35;100647.63;;;16.66;32.43
8637;BME280;4356;49.068;8.658;2023-03-04T09:11:01;100653.50;;;16.70;32.68
8637;BME280;4356;49.068;8.658;2023-03-04T09:13:28;100628.53;;;16.60;32.96
8637;BME280;4356;49.068;8.658;2023-03-04T09:15:55;100628.97;;;16.63;33.01
8637;BME280;4356;49.068;8.658;2023-03-04T09:18:22;100642.91;;;16.75;32.92
8637;BME280;4356;49.068;8.658;2023-03-04T09:20:47;100641.22;;;16.74;33.04
8637;BME280;4356;49.068;8.658;2023-03-04T09:23:13;100625.69;;;16.68;32.99
8637;BME280;4356;49.068;8.658;2023-03-04T09:25:40;100645.03;;;16.79;33.05
8637;BME280;4356;49.068;8.658;2023-03-04T09:28:06;100626.34;;;16.70;33.24
8637;BME280;4356;49.068;8.658;2023-03-04T09:30:33;100651.94;;;16.82;33.12
8637;BME280;4356;49.068;8.658;2023-03-04T09:32:59;100645.50;;;16.83;33.34
8637;BME280;4356;49.068;8.658;2023-03-04T09:35:24;100649.03;;;16.83;33.25
8637;BME280;4356;49.068;8.658;2023-03-04T09:37:50;100626.81;;;16.73;33.18
8637;BME280;4356;49.068;8.658;2023-03-04T09:40:22;100653.25;;;16.86;33.12
8637;BME280;4356;49.068;8.658;2023-03-04T09:42:58;100644.25;;;16.85;33.07
8637;BME280;4356;49.068;8.658;2023-03-04T09:45:31;100640.72;;;16.85;33.19
8637;BME280;4356;49.068;8.658;2023-03-04T09:47:59;100650.13;;;16.89;33.01
8637;BME280;4356;49.068;8.658;2023-03-04T09:50:27;100654.34;;;16.91;32.98
8637;BME280;4356;49.068;8.658;2023-03-04T09:55:43;100654.81;;;16.95;33.01
8637;BME280;4356;49.068;8.658;2023-03-04T10:01:24;100658.81;;;16.99;33.11
8637;BME280;4356;49.068;8.658;2023-03-04T10:04:53;100655.66;;;16.95;33.28
8637;BME280;4356;49.068;8.658;2023-03-04T10:06:52;100658.81;;;16.99;33.11
8637;BME280;4356;49.068;8.658;2023-03-04T10:09:29;100668.06;;;17.04;33.45
8637;BME280;4356;49.068;8.658;2023-03-04T10:12:03;100661.78;;;17.04;33.47
8637;BME280;4356;49.068;8.658;2023-03-04T10:14:48;100664.28;;;17.05;33.58
8637;BME280;4356;49.068;8.658;2023-03-04T10:17:23;100660.56;;;17.06;33.16
8637;BME280;4356;49.068;8.658;2023-03-04T10:23:10;100661.66;;;17.12;32.81
8637;BME280;4356;49.068;8.658;2023-03-04T10:25:42;100655.13;;;17.06;32.40
8637;BME280;4356;49.068;8.658;2023-03-04T10:28:16;100664.38;;;17.12;32.50
8637;BME280;4356;49.068;8.658;2023-03-04T10:33:28;100656.84;;;17.14;32.27
8637;BME280;4356;49.068;8.658;2023-03-04T10:39:25;100658.81;;;17.20;32.78
8637;BME280;4356;49.068;8.658;2023-03-04T10:42:00;100651.50;;;17.20;32.41
8637;BME280;4356;49.068;8.658;2023-03-04T10:44:27;100656.09;;;17.20;32.31
8637;BME280;4356;49.068;8.658;2023-03-04T10:46:56;100654.00;;;17.22;32.51
8637;BME280;4356;49.068;8.658;2023-03-04T10:49:24;100648.59;;;17.22;32.11
8637;BME280;4356;49.068;8.658;2023-03-04T10:52:34;100637.31;;;17.25;32.69
8637;BME280;4356;49.068;8.658;2023-03-04T10:55:04;100639.22;;;17.24;32.39
8637;BME280;4356;49.068;8.658;2023-03-04T10:57:36;100633.94;;;17.23;32.50
8637;BME280;4356;49.068;8.658;2023-03-04T11:02:47;100623.28;;;17.21;32.68
8637;BME280;4356;49.068;8.658;2023-03-04T11:05:23;100627.28;;;17.25;32.34
8637;BME280;4356;49.068;8.658;2023-03-04T11:07:54;100630.66;;;17.27;32.19
8637;BME280;4356;49.068;8.658;2023-03-04T11:10:22;100631.09;;;17.31;32.72
8637;BME280;4356;49.068;8.658;2023-03-04T11:18:21;100623.81;;;17.31;32.65
8637;BME280;4356;49.068;8.658;2023-03-04T11:20:49;100614.81;;;17.31;32.62
8637;BME280;4356;49.068;8.658;2023-03-04T11:23:21;100614.16;;;17.29;32.62
8637;BME280;4356;49.068;8.658;2023-03-04T11:25:55;100624.91;;;17.37;32.24
8637;BME280;4356;49.068;8.658;2023-03-04T11:28:50;100618.81;;;17.35;32.59
8637;BME280;4356;49.068;8.658;2023-03-04T11:31:16;100602.66;;;17.27;32.46
8637;BME280;4356;49.068;8.658;2023-03-04T11:34:06;100611.97;;;17.39;32.77
8637;BME280;4356;49.068;8.658;2023-03-04T11:36:52;100610.91;;;17.40;32.35
8637;BME280;4356;49.068;8.658;2023-03-04T11:44:43;100604.44;;;17.41;31.93
8637;BME280;4356;49.068;8.658;2023-03-04T11:52:35;100613.84;;;17.45;32.64
8637;BME280;4356;49.068;8.658;2023-03-04T12:00:48;100592.13;;;17.45;32.41
8637;BME280;4356;49.068;8.658;2023-03-04T12:06:34;100592.72;;;17.40;32.30
8637;BME280;4356;49.068;8.658;2023-03-04T12:14:43;100576.63;;;17.39;32.53
8637;BME280;4356;49.068;8.658;2023-03-04T12:22:45;100567.03;;;17.43;32.25
8637;BME280;4356;49.068;8.658;2023-03-04T12:27:57;100560.56;;;17.44;32.30
8637;BME280;4356;49.068;8.658;2023-03-04T12:30:29;100559.72;;;17.43;32.13
8637;BME280;4356;49.068;8.658;2023-03-04T12:35:36;100533.94;;;17.33;32.08
8637;BME280;4356;49.068;8.658;2023-03-04T12:43:40;100543.41;;;17.43;31.96
8637;BME280;4356;49.068;8.658;2023-03-04T12:49:25;100538.19;;;17.42;31.98
8637;BME280;4356;49.068;8.658;2023-03-04T12:54:57;100525.59;;;17.34;31.71
8637;BME280;4356;49.068;8.658;2023-03-04T12:57:26;100538.41;;;17.40;31.67
8637;BME280;4356;49.068;8.658;2023-03-04T13:00:28;100521.78;;;17.29;31.73
8637;BME280;4356;49.068;8.658;2023-03-04T13:03:21;100534.81;;;17.40;31.65
8637;BME280;4356;49.068;8.658;2023-03-04T13:06:12;100525.38;;;17.36;31.45
8637;BME280;4356;49.068;8.658;2023-03-04T13:08:50;100527.72;;;17.39;31.06
8637;BME280;4356;49.068;8.658;2023-03-04T13:11:51;100532.09;;;17.40;30.80
8637;BME280;4356;49.068;8.658;2023-03-04T13:16:47;100520.59;;;17.38;31.17
8637;BME280;4356;49.068;8.658;2023-03-04T13:19:42;100522.28;;;17.39;31.24
8637;BME280;4356;49.068;8.658;2023-03-04T13:22:50;100517.25;;;17.36;30.77
8637;BME280;4356;49.068;8.658;2023-03-04T13:25:30;100522.47;;;17.37;30.86
8637;BME280;4356;49.068;8.658;2023-03-04T13:48:57;100512.41;;;17.31;30.82
8637;BME280;4356;49.068;8.658;2023-03-04T13:51:28;100494.41;;;17.24;30.83
8637;BME280;4356;49.068;8.658;2023-03-04T13:54:05;100505.94;;;17.32;30.73
8637;BME280;4356;49.068;8.658;2023-03-04T13:56:36;100481.59;;;17.18;30.64
8637;BME280;4356;49.068;8.658;2023-03-04T14:04:37;100498.19;;;17.29;30.32
8637;BME280;4356;49.068;8.658;2023-03-04T14:07:17;100477.03;;;17.25;30.52
8637;BME280;4356;49.068;8.658;2023-03-04T14:09:54;100489.19;;;17.29;30.28
8637;BME280;4356;49.068;8.658;2023-03-04T14:12:20;100483.97;;;17.27;30.23
8637;BME280;4356;49.068;8.658;2023-03-04T14:14:50;100484.59;;;17.29;30.63
8637;BME280;4356;49.068;8.658;2023-03-04T14:17:19;100462.16;;;17.14;30.33
8637;BME280;4356;49.068;8.658;2023-03-04T14:19:47;100481.03;;;17.29;30.33
8637;BME280;4356;49.068;8.658;2023-03-04T14:25:00;100477.69;;;17.27;30.45
8637;BME280;4356;49.068;8.658;2023-03-04T14:27:27;100472.22;;;17.20;30.31
8637;BME280;4356;49.068;8.658;2023-03-04T14:29:55;100471.81;;;17.23;30.44
8637;BME280;4356;49.068;8.658;2023-03-04T14:32:22;100467.22;;;17.24;30.43
8637;BME280;4356;49.068;8.658;2023-03-04T14:34:49;100459.88;;;17.18;30.29
8637;BME280;4356;49.068;8.658;2023-03-04T14:37:26;100475.19;;;17.25;30.38
8637;BME280;4356;49.068;8.658;2023-03-04T14:39:56;100462.38;;;17.19;30.35
8637;BME280;4356;49.068;8.658;2023-03-04T14:42:33;100463.88;;;17.22;30.23
8637;BME280;4356;49.068;8.658;2023-03-04T14:45:01;100465.53;;;17.23;30.45
8637;BME280;4356;49.068;8.658;2023-03-04T14:47:38;100461.16;;;17.22;30.17
8637;BME280;4356;49.068;8.658;2023-03-04T14:50:06;100448.00;;;17.19;30.13
8637;BME280;4356;49.068;8.658;2023-03-04T14:52:38;100447.94;;;17.12;30.35
8637;BME280;4356;49.068;8.658;2023-03-04T14:57:38;100456.94;;;17.19;30.37
8637;BME280;4356;49.068;8.658;2023-03-04T15:02:41;100448.78;;;17.13;30.08
8637;BME280;4356;49.068;8.658;2023-03-04T15:05:09;100456.34;;;17.17;30.16
8637;BME280;4356;49.068;8.658;2023-03-04T15:07:36;100450.66;;;17.12;30.36
8637;BME280;4356;49.068;8.658;2023-03-04T15:10:09;100447.94;;;17.12;30.09
8637;BME280;4356;49.068;8.658;2023-03-04T15:12:37;100459.06;;;17.17;30.20